Dayville, Connecticut
Current Conditions -  °F | °C
As of 8:52 AM on Thursday 29 Jan 2015 (Local Time) from KIJD Reporting Station
Clear Clear  
Wind Chill: -17°   Ceiling: Unl
Heat Index: -17°   Visibility: 10mi
Dew Point: -19°   Wind: 0mph
Humidity: 83%   Direction: NA
Pressure: 30.34"   Gusts: NA
Location:  41.84°N, 71.91°W
Report Text: KIJD 291352Z AUTO 00000KT 10SM CLR M17/M19 A3034 RMK AO2 SLP278 T11671189
Loading
Personal Weather Stations






























Interactive Weather Map New forecast layout! Learn more

10-Day Weather Forecast

Advertisements
Track Severe Weather on mobile